Sacramento River@Freeport

Start Stop
DateFlow
CFS
Gauge
Feet
Temp
F
DateFlow
CFS
Gauge
Feet
Temp
F
01/29/2020 08:00  52.9
01/29/2020 07:3024200105.07 
01/29/2020 07:00  52.9
01/29/2020 06:3025100104.93 
01/29/2020 06:00  52.9
01/29/2020 05:3026000104.84 
01/29/2020 05:00  52.9
01/29/2020 04:3026400104.84 
01/29/2020 04:00  52.9
01/29/2020 03:3026500104.94 
01/29/2020 03:00  53.1
01/29/2020 02:3026800105.07 
01/29/2020 02:00  53.1
01/29/2020 01:3026200105.2 
01/29/2020 00:3025900105.32 
01/28/2020 23:3025600105.44 
01/28/2020 23:00  53.1
01/28/2020 22:45  52.9
01/28/2020 22:3024700105.52 
01/28/2020 22:00  53.1
01/28/2020 21:3023600105.57 
01/28/2020 20:3022800105.56 
01/28/2020 20:00  53.1
01/28/2020 19:3022300105.44 
01/28/2020 19:00  52.9
01/28/2020 18:3022700105.22 
01/28/2020 17:3023400104.97 
01/28/2020 16:3024200104.76 
01/28/2020 15:3024500104.68 
01/28/2020 14:3024600104.69 
01/28/2020 13:3024300104.74 
01/28/2020 13:00  52.9
01/28/2020 12:3023800104.81 
01/28/2020 12:00  52.7
01/28/2020 11:3022500104.85 
01/28/2020 11:00  52.7
01/28/2020 10:3021600104.87 
01/28/2020 10:00  52.5
01/28/2020 09:3020800104.81 
01/28/2020 08:3020100104.64 
01/28/2020 07:3020000104.39 
01/28/2020 06:3020400104.14 
01/28/2020 06:00  52.5
01/28/2020 05:3021900103.94 
01/28/2020 05:00  52.7
01/28/2020 04:3022500103.86 
01/28/2020 03:3022900103.9 
01/28/2020 02:3022600104.04 
01/28/2020 01:3022100104.2 
01/28/2020 01:00  52.7
01/28/2020 00:3022000104.36 
01/28/2020 00:00  52.5
01/27/2020 23:3021200104.51 
01/27/2020 22:3020700104.66 
01/27/2020 21:3019300104.79 
01/27/2020 20:3017400104.89 
01/27/2020 20:00  52.5
01/27/2020 19:3016100104.91 
01/27/2020 19:00  52.7
01/27/2020 18:3014900104.78 
01/27/2020 17:3015200104.49 
01/27/2020 16:3016300104.13 
01/27/2020 15:3018400103.87 
01/27/2020 15:00  52.7
01/27/2020 14:3019600103.79 
01/27/2020 14:00  52.5
01/27/2020 13:3019400103.87 
01/27/2020 13:00  52.3
01/27/2020 12:3019200104.01 
01/27/2020 12:00  52.3
01/27/2020 11:3018400104.13 
01/27/2020 11:00  52.2
01/27/2020 10:3017500104.24 
01/27/2020 09:3016700104.3 
01/27/2020 08:3015600104.27 
01/27/2020 07:3015300104.1 
01/27/2020 06:3016400103.86 
01/27/2020 06:00  52.2
01/27/2020 05:3017600103.64 
01/27/2020 05:00  52.3
01/27/2020 04:3019000103.53 
01/27/2020 03:3020000103.57 
01/27/2020 02:3020400103.74 
01/27/2020 02:00  52.3
01/27/2020 01:3020600103.96 
01/27/2020 01:00  52.2
01/27/2020 00:3020100104.19 
01/26/2020 23:3019600104.42 
01/26/2020 22:3018700104.64 
01/26/2020 21:3018100104.84 
01/26/2020 21:00  52.2
01/26/2020 20:3016500105.02 
01/26/2020 20:00  52.3
01/26/2020 19:3015700105.15 
01/26/2020 17:3012500104.99 
01/26/2020 16:3013100104.62 
01/26/2020 15:3015700104.19 
01/26/2020 15:00  52.3
01/26/2020 14:3017900103.91 
01/26/2020 14:00  52.2
01/26/2020 13:3018400103.88 
01/26/2020 13:00  52.2
01/26/2020 12:3018100103.99 
01/26/2020 12:00  52
01/26/2020 11:3017700104.13 
01/26/2020 11:00  51.8
01/26/2020 10:3017200104.25 
01/26/2020 10:00  51.8
01/26/2020 09:3016300104.34 
01/26/2020 09:00  51.6
01/26/2020 08:3015000104.38 
01/26/2020 07:3014500104.26 
01/26/2020 06:3015000104.02 
01/26/2020 05:3016600103.75 
01/26/2020 04:3018100103.54 
01/26/2020 03:3019700103.48 
01/26/2020 03:00  51.6
01/26/2020 02:3020300103.59 
01/26/2020 02:00  51.4
01/26/2020 01:3020300103.8 
01/26/2020 01:00  51.4
01/26/2020 00:3019900104.03 
01/26/2020 00:00  51.3
01/25/2020 23:3020000104.26 
01/25/2020 23:00  51.3
01/25/2020 22:3019800104.48 
01/25/2020 22:00  51.1
01/25/2020 21:3019100104.69 
01/25/2020 21:00  51.3
01/25/2020 20:3018000104.89 
01/25/2020 19:3016700105.05 
01/25/2020 18:3014500105.17 
01/25/2020 17:3012400105.12 
01/25/2020 16:3012600104.81 
01/25/2020 16:00  51.3
01/25/2020 15:3013900104.4 
01/25/2020 15:00  51.1
01/25/2020 14:3016400103.99 
01/25/2020 14:00  51.1
01/25/2020 13:3018100103.82 
01/25/2020 13:00  50.9
01/25/2020 12:3018900103.84 
01/25/2020 12:00  50.9
01/25/2020 11:3018700103.95 
01/25/2020 11:00  50.7
01/25/2020 10:3018000104.08 
01/25/2020 10:00  50.5
01/25/2020 09:3017100104.18 
01/25/2020 08:3015600104.26 
01/25/2020 07:3014500104.23 
01/25/2020 06:3014600104.07 
01/25/2020 05:3015600103.83 
01/25/2020 04:3016900103.59 
01/25/2020 03:3018400103.46 
01/25/2020 03:00  50.5
01/25/2020 02:3019700103.47 
01/25/2020 02:00  50.4
01/25/2020 01:3020000103.63 
01/25/2020 00:3019900103.85 
01/25/2020 00:00  50.4
01/24/2020 23:3019700104.08 
01/24/2020 23:00  50.2
01/24/2020 22:3019100104.31 
01/24/2020 22:00  50.2
01/24/2020 21:3018600104.53 
01/24/2020 21:00  50.4
01/24/2020 20:3017800104.74 
01/24/2020 19:3016500104.92 
01/24/2020 18:3014800105.07 
01/24/2020 17:3012400105.16 
01/24/2020 16:3010600105 
01/24/2020 15:3010800104.62 
01/24/2020 14:3012500104.14 
01/24/2020 14:00  50.4
01/24/2020 13:3015400103.71 
01/24/2020 13:00  50.2
01/24/2020 12:3016900103.56 
01/24/2020 12:00  50
01/24/2020 11:3017800103.6 
01/24/2020 11:00  49.8
01/24/2020 10:3016900103.72 
01/24/2020 10:00  49.8
01/24/2020 09:3016400103.84 
01/24/2020 09:00  49.6
01/24/2020 08:3015400103.95 
01/24/2020 07:3013700104.02 
01/24/2020 06:3012800103.95 
01/24/2020 06:00  49.6
01/24/2020 05:3013000103.72 
01/24/2020 05:00  49.5
01/24/2020 04:3014200103.44 
01/24/2020 03:3015600103.18 
01/24/2020 02:3017200103.08 
01/24/2020 02:00  49.5
01/24/2020 01:3018300103.15 
01/24/2020 01:00  49.3
01/24/2020 00:3018800103.36 
01/23/2020 23:3018100103.6 
01/23/2020 22:3017900103.84 
01/23/2020 22:00  49.3
01/23/2020 21:3017600104.09 
01/23/2020 21:00  49.5
01/23/2020 20:3017300104.32 
01/23/2020 19:3016300104.54 
01/23/2020 18:3014900104.73 
01/23/2020 18:00  49.5
01/23/2020 17:3012800104.89 
01/23/2020 17:00  49.3
01/23/2020 16:309720104.94 
01/23/2020 15:309180104.69 
01/23/2020 14:309890104.27 
01/23/2020 14:00  49.3
01/23/2020 13:3012400103.77 
01/23/2020 13:00  49.1
01/23/2020 12:3014800103.43 
01/23/2020 12:00  49.1
01/23/2020 11:3016400103.35 
01/23/2020 11:00  48.9
01/23/2020 10:3016500103.45 
01/23/2020 10:00  48.7
01/23/2020 09:3015900103.6 
01/23/2020 09:00  48.6
01/23/2020 08:3015300103.73 
01/23/2020 07:3014400103.84 
01/23/2020 06:3013400103.89 
01/23/2020 06:00  48.6
01/23/2020 05:3012900103.79 
01/23/2020 05:00  48.4
01/23/2020 04:3013400103.58 
01/23/2020 03:3014600103.34 
01/23/2020 02:3016800103.16 
01/23/2020 01:3017800103.15 
01/23/2020 01:00  48.4
01/23/2020 00:3018600103.29 
01/23/2020 00:00  48.2
01/22/2020 23:3018400103.52 
01/22/2020 23:00  48.2
01/22/2020 22:3018400103.77 
01/22/2020 22:00  48.4
01/22/2020 21:3018200104.02 
01/22/2020 20:3018000104.27 
01/22/2020 19:3017200104.51 
01/22/2020 18:3016100104.72 
01/22/2020 17:3014800104.91 
01/22/2020 16:3012400105.08 
01/22/2020 15:309850105.05 
01/22/2020 14:309610104.75 
01/22/2020 14:00  48.4
01/22/2020 13:3011000104.32 
01/22/2020 13:00  48.2
01/22/2020 12:3013700103.83 
01/22/2020 12:00  48.2
01/22/2020 11:3015600103.57 
01/22/2020 11:00  48
01/22/2020 10:3016700103.55 
01/22/2020 10:00  47.8
01/22/2020 09:3016500103.67 
01/22/2020 08:3016500103.82 
01/22/2020 07:3015900103.96 
01/22/2020 06:3015300104.05 
01/22/2020 06:00  47.8
01/22/2020 05:3013500104.08 
01/22/2020 05:00  47.7
01/22/2020 04:3013500103.96 
01/22/2020 03:3014100103.76 
01/22/2020 03:00  47.7
01/22/2020 02:3016100103.53 
01/22/2020 02:00  47.8
01/22/2020 01:3017600103.39 
01/22/2020 01:00  47.8
01/22/2020 00:3018900103.42 
01/22/2020 00:00  47.7
01/21/2020 23:3019400103.59 
01/21/2020 22:3019300103.82 
01/21/2020 21:3019100104.07 
01/21/2020 20:3019000104.31 
01/21/2020 19:3018600104.55 
01/21/2020 18:3018000104.78 
01/21/2020 17:3016700104.99 
01/21/2020 17:00  47.7
01/21/2020 16:3015000105.16 
01/21/2020 16:00  47.8
01/21/2020 15:3012000105.3 
01/21/2020 15:00  47.7
01/21/2020 14:309900105.18 
01/21/2020 13:3010100104.83 
01/21/2020 12:3011500104.38 
01/21/2020 12:00  47.7
01/21/2020 11:3014300103.89 
01/21/2020 11:00  47.5
01/21/2020 10:3016700103.66 
01/21/2020 10:00  47.5
01/21/2020 09:3017400103.65 
01/21/2020 09:00  47.3
01/21/2020 08:3017500103.76 
01/21/2020 07:3016900103.9 
01/21/2020 06:3016400104.02 
01/21/2020 05:3015100104.11 
01/21/2020 04:3014400104.09 
01/21/2020 03:3014600103.96 
01/21/2020 03:00  47.3
01/21/2020 02:3015600103.75 
01/21/2020 02:00  47.5
01/21/2020 01:3016400103.54 
01/21/2020 00:3017900103.44 
01/20/2020 23:3019300103.48 
01/20/2020 22:3019400103.65 
01/20/2020 21:3019700103.88 
01/20/2020 20:3019600104.1 
01/20/2020 19:3019100104.34 
01/20/2020 18:3018600104.55 
01/20/2020 17:3017800104.76 
01/20/2020 16:3016700104.94 
01/20/2020 15:3015000105.09 
01/20/2020 14:3012300105.17 
01/20/2020 13:3010800105 
01/20/2020 12:3011400104.63 
01/20/2020 11:3012700104.18 
01/20/2020 11:00  47.5
01/20/2020 10:3015500103.72 
01/20/2020 10:00  47.3
01/20/2020 09:3017300103.5 
01/20/2020 08:3018100103.5 
01/20/2020 08:00  47.3
01/20/2020 07:45  47.1
01/20/2020 07:3018000103.6 
01/20/2020 07:00  47.5
01/20/2020 06:3017600103.72 
01/20/2020 05:3017300103.82 
01/20/2020 04:3016000103.9 
01/20/2020 04:00  47.5
01/20/2020 03:3015700103.9 
01/20/2020 03:00  47.3
01/20/2020 02:3015400103.79 
01/20/2020 01:3016000103.6 
01/20/2020 00:3017300103.42 
01/19/2020 23:3018800103.32 
01/19/2020 22:3019700103.36 
01/19/2020 21:3020100103.51 
01/19/2020 21:00  47.3
01/19/2020 20:3019500103.7 
01/19/2020 20:00  47.5
01/19/2020 19:3019400103.91 
01/19/2020 18:3019300104.11 
01/19/2020 15:3016900104.6 
01/19/2020 14:3015000104.73 
01/19/2020 13:3012800104.75 
01/19/2020 13:00  47.5
01/19/2020 12:3011400104.52 
01/19/2020 12:00  47.3
01/19/2020 11:3011800104.12 
01/19/2020 10:3013400103.65 
01/19/2020 09:3015600103.24 
01/19/2020 08:3017600103.06 
01/19/2020 08:00  47.3
01/19/2020 07:3018100103.06 
01/19/2020 07:00  47.5
01/19/2020 06:3017900103.17 
01/19/2020 05:3017500103.3 
01/19/2020 04:3016700103.42 
01/19/2020 03:3015900103.5 
01/19/2020 03:00  47.5
01/19/2020 02:3014900103.54 
01/19/2020 02:00  47.3
01/19/2020 01:3014600103.48 
01/19/2020 00:3014400103.32 
01/18/2020 23:3015500103.11 
01/18/2020 22:3016800102.97 
01/18/2020 21:3017700102.96 
01/18/2020 20:3018200103.09 
01/18/2020 20:00  47.3
01/18/2020 19:3017800103.28 
01/18/2020 19:00  47.5
01/18/2020 18:3017500103.49 
01/18/2020 17:3017300103.7 
01/18/2020 16:3016900103.89 
01/18/2020 15:3015900104.07 
01/18/2020 14:3014900104.23 
01/18/2020 13:3012900104.37 
01/18/2020 13:00  47.5
01/18/2020 12:309710104.38 
01/18/2020 12:00  47.3
01/18/2020 11:309350104.11 
01/18/2020 10:3010200103.69 
01/18/2020 10:00  47.3
01/18/2020 09:3011700103.23 
01/18/2020 09:00  47.1
01/18/2020 08:3014700102.82 
01/18/2020 08:00  47.1
01/18/2020 07:3015900102.66 
01/18/2020 07:00  47.3
01/18/2020 06:3016900102.71 
01/18/2020 05:3016600102.88 
01/18/2020 05:00  47.3
01/18/2020 04:3016400103.05 
01/18/2020 04:00  47.5
01/18/2020 03:3016000103.22 
01/18/2020 02:3015300103.37 
01/18/2020 01:3014600103.48 
01/18/2020 00:3013900103.52 
01/17/2020 23:3013300103.46 
01/17/2020 22:3014300103.3 
01/17/2020 22:00  47.5
01/17/2020 21:3015500103.13 
01/17/2020 21:00  47.7
01/17/2020 20:3016900103.09 
01/17/2020 19:3017700103.19 
01/17/2020 19:00  47.7
01/17/2020 18:3017600103.38 
01/17/2020 18:00  47.8
01/17/2020 17:3017500103.59 
01/17/2020 17:00  47.8
01/17/2020 16:3017000103.8 
01/17/2020 16:00  48
01/17/2020 15:3016700104 
01/17/2020 15:00  48
01/17/2020 14:3015600104.19 
01/17/2020 14:00  47.8
01/17/2020 13:3014600104.36 
01/17/2020 12:3012400104.49 
01/17/2020 11:3010200104.46 
01/17/2020 10:3010200104.15 
01/17/2020 09:3011600103.76 
01/17/2020 08:3013700103.34 
01/17/2020 07:3015900103.07 
01/17/2020 06:3017400103.04 
01/17/2020 05:3017500103.2 
01/17/2020 05:00  47.8
01/17/2020 04:3017600103.4 
01/17/2020 04:00  48
01/17/2020 03:3017300103.63 
01/17/2020 02:3016900103.84 
01/17/2020 02:00  48
01/17/2020 01:3016000104.04 
01/17/2020 01:00  48.2
01/17/2020 00:3015000104.21 
01/16/2020 23:3013500104.34 
01/16/2020 23:00  48.2
01/16/2020 22:3012200104.36 
01/16/2020 22:00  48.4
01/16/2020 21:3012500104.22 
01/16/2020 20:3013700103.98 
01/16/2020 19:3015900103.79 
01/16/2020 18:3017200103.75 
01/16/2020 18:00  48.4
01/16/2020 17:3017300103.85 
01/16/2020 17:00  48.6
01/16/2020 16:3017100104.04 
01/16/2020 15:3016600104.24 
01/16/2020 15:00  48.6
01/16/2020 14:3015700104.44 
01/16/2020 14:00  48.4
01/16/2020 13:3014300104.63 
01/16/2020 13:00  48.6
01/16/2020 12:3010800104.84 
01/16/2020 11:309100104.72 
01/16/2020 10:308310104.43 
01/16/2020 09:308470104.02 
01/16/2020 08:3010000103.56 
01/16/2020 07:3013100103.07 
01/16/2020 07:00  48.6
01/16/2020 06:3015500102.82 
01/16/2020 06:00  48.7
01/16/2020 05:3017000102.78 
01/16/2020 04:3017200102.95 
01/16/2020 04:00  48.7
01/16/2020 03:3017100103.17 
01/16/2020 03:00  48.9
01/16/2020 02:3016900103.39 
01/16/2020 01:3016800103.62 
01/16/2020 00:3015900103.82 
01/16/2020 00:00  48.9
01/15/2020 23:3014900104 
01/15/2020 23:00  49.1
01/15/2020 22:3013500104.14 
01/15/2020 21:3011700104.2 
01/15/2020 21:00  49.1
01/15/2020 20:3010800104.05 
01/15/2020 20:00  49.3
01/15/2020 19:3011700103.72 
01/15/2020 18:3014000103.35 
01/15/2020 17:3016000103.19 
01/15/2020 16:3017000103.22 
01/15/2020 16:00  49.3
01/15/2020 15:3017100103.38 
01/15/2020 14:45  49.1
01/15/2020 14:30 103.56 
01/15/2020 13:3016000  
01/15/2020 12:3015000103.91 
01/15/2020 11:3013400104.05 
01/15/2020 10:3011400104.1 
01/15/2020 09:3011000103.92 
01/15/2020 08:3012000103.56 
01/15/2020 07:3013900103.21 
01/15/2020 07:00  49.1
01/15/2020 06:3016000102.94 
01/15/2020 06:00  49.3
01/15/2020 05:3017600102.87 
01/15/2020 04:3018100102.99 
01/15/2020 03:3018300103.21 
01/15/2020 02:3017900103.45 
01/15/2020 01:3017700103.68 
01/15/2020 00:3017200103.91 
01/14/2020 23:3016300104.13 
01/14/2020 22:3015300104.32 
01/14/2020 21:45  49.3
01/14/2020 21:3014000104.49 
01/14/2020 20:3011800104.59 
01/14/2020 19:3010600104.46 
01/14/2020 18:3011500104.13 
01/14/2020 17:3013700103.73 
01/14/2020 16:3015800103.49 
01/14/2020 15:3016700103.48 
01/14/2020 14:3016800103.61 
01/14/2020 14:00  49.5
01/14/2020 13:3016700103.78 
01/14/2020 13:00  49.3
01/14/2020 12:3015900103.94 
01/14/2020 12:00  49.3
01/14/2020 11:3014600104.09 
01/14/2020 11:00  49.1
01/14/2020 10:3012800104.22 
01/14/2020 09:3011100104.23 
01/14/2020 08:3010900104.01 
01/14/2020 07:3012300103.67 
01/14/2020 06:3013700103.38 
01/14/2020 05:3016100103.14 
01/14/2020 05:00  49.1
01/14/2020 04:3017700103.11 
01/14/2020 04:00  49.3
01/14/2020 03:3018000103.27 
01/14/2020 03:00  49.1
01/14/2020 02:3018100103.5 
01/14/2020 01:3017900103.75 
01/14/2020 00:3017600103.99 
01/13/2020 23:3017000104.24 
01/13/2020 22:3016200104.47 
01/13/2020 21:3015200104.67 
01/13/2020 20:3013600104.85 
01/13/2020 19:3010600104.96 
01/13/2020 18:309640104.77 
01/13/2020 17:309870104.4 
01/13/2020 16:3011900103.93 
01/13/2020 15:3014900103.55 
01/13/2020 14:3016300103.45 
01/13/2020 14:00  49.1
01/13/2020 13:3016800103.54 
01/13/2020 13:00  48.9
01/13/2020 12:3016200103.69 
01/13/2020 11:3015500103.84 
01/13/2020 11:00  48.9
01/13/2020 10:3014300103.96 
01/13/2020 10:00  48.7
01/13/2020 09:3013500104.04 
01/13/2020 08:3012300103.96 
01/13/2020 07:3012700103.71 
01/13/2020 07:00  48.7
01/13/2020 06:3014200103.42 
01/13/2020 06:00  48.9
01/13/2020 05:3016000103.17 
01/13/2020 05:00  48.9
01/13/2020 04:3017500103.09 
01/13/2020 04:00  49.1
01/13/2020 03:3018400103.17 
01/13/2020 02:3018200103.38 
01/13/2020 01:3018700103.63 
01/13/2020 00:3018300103.88 
01/12/2020 23:3018100104.13 
01/12/2020 22:3017700104.37 
01/12/2020 22:00  49.1
01/12/2020 21:3016500104.59 
01/12/2020 21:00  49.3
01/12/2020 20:3015500104.8 
01/12/2020 19:3013500104.96 
01/12/2020 18:3010200105.02 
01/12/2020 17:308870104.77 
01/12/2020 16:309660104.37 
01/12/2020 15:3012600103.85 
01/12/2020 14:3015200103.47 
01/12/2020 14:00  49.3
01/12/2020 13:3016800103.38 
01/12/2020 13:00  49.1
01/12/2020 12:3016900103.47 
01/12/2020 12:00  49.1
01/12/2020 11:3016800103.62 
01/12/2020 11:00  48.9
01/12/2020 10:3015700103.76 
01/12/2020 09:3014700103.86 
01/12/2020 08:3013500103.91 
01/12/2020 07:3013100103.79 
01/12/2020 06:3013500103.55 
01/12/2020 06:00  48.9
01/12/2020 05:3015100103.3 
01/12/2020 05:00  49.1
01/12/2020 04:3016600103.14 
01/12/2020 03:3017800103.13 
01/12/2020 02:3018600103.29 
01/12/2020 01:3018800103.53 
01/12/2020 01:00  49.1
01/12/2020 00:3018400103.79 
01/12/2020 00:00  48.9
01/11/2020 23:3018300104.05 
01/11/2020 23:00  49.1
01/11/2020 22:3018000104.3 
01/11/2020 21:3016900104.55 
01/11/2020 20:3016400104.77 
01/11/2020 19:3014800104.98 
01/11/2020 18:3012300105.16 
01/11/2020 18:00  49.1
01/11/2020 17:309400105.17 
01/11/2020 17:00  49.3
01/11/2020 16:308830104.88 
01/11/2020 15:309810104.46 
01/11/2020 15:00  49.3
01/11/2020 14:3012100103.94 
01/11/2020 14:00  49.1
01/11/2020 13:3015300103.56 
01/11/2020 13:00  48.9
01/11/2020 12:3016200103.48 
01/11/2020 11:3016100103.57 
01/11/2020 11:00  48.9
01/11/2020 10:3015600103.7 
01/11/2020 10:00  48.7
01/11/2020 09:3014900103.81 
01/11/2020 08:3013800103.89 
01/11/2020 07:3012300103.86 
01/11/2020 07:00  48.7
01/11/2020 06:3012600103.67 
01/11/2020 06:00  48.9
01/11/2020 05:3014100103.39 
01/11/2020 04:3015700103.15 
01/11/2020 03:3017300103.03 
01/11/2020 02:3018600103.07 
01/11/2020 01:3018600103.26 
01/11/2020 00:3018500103.51 
01/10/2020 23:3018500103.76 
01/10/2020 22:3018300104.02 
01/10/2020 21:3017600104.27 
01/10/2020 20:3017400104.5 
01/10/2020 19:3016300104.72 
01/10/2020 18:3015000104.92 
01/10/2020 17:3011900105.08 
01/10/2020 16:309510105.01 
01/10/2020 15:309400104.68 
01/10/2020 14:3010800104.22 
01/10/2020 13:3013700103.72 
01/10/2020 12:3016100103.48 
01/10/2020 12:00  48.9
01/10/2020 11:3016700103.47 
01/10/2020 11:00  48.7
01/10/2020 10:3016800103.58 
01/10/2020 09:3016200103.72 
01/10/2020 08:3015200103.83 
01/10/2020 07:3014000103.9 
01/10/2020 07:00  48.7
01/10/2020 06:3013100103.83 
01/10/2020 06:00  48.9
01/10/2020 05:3013500103.63 
01/10/2020 04:3014900103.4 
01/10/2020 04:00  48.9
01/10/2020 03:3016700103.19 
01/10/2020 03:00  49.1
01/10/2020 02:3017700103.13 
01/10/2020 01:3018600103.23 
01/10/2020 01:00  49.1
01/10/2020 00:3018800103.45 
01/10/2020 00:00  48.9
01/09/2020 23:3018600103.7 
01/09/2020 23:00  48.9
01/09/2020 22:3018500103.96 
01/09/2020 22:00  49.1
01/09/2020 21:3018400104.22 
01/09/2020 20:3017500104.48 
01/09/2020 19:3017200104.71 
01/09/2020 18:3016100104.92 
01/09/2020 17:3014500105.11 
01/09/2020 16:3011400105.27 
01/09/2020 15:309310105.17 
01/09/2020 14:309100104.81 
01/09/2020 13:3010400104.33 
01/09/2020 13:00  49.1
01/09/2020 12:3013500103.84 
01/09/2020 12:00  48.9
01/09/2020 11:3015600103.61 
01/09/2020 10:3016200103.58 
01/09/2020 09:3016200103.66 
01/09/2020 08:3015600103.76 
01/09/2020 07:3014900103.86 
01/09/2020 06:3013200103.88 
01/09/2020 05:3012500103.76 
01/09/2020 04:3012600103.53 
01/09/2020 03:3013900103.24 
01/09/2020 02:3016100103.03 
01/09/2020 01:3017300102.98 
01/09/2020 00:3018300103.11 
01/08/2020 23:3018300103.33 
01/08/2020 22:3018200103.57 
01/08/2020 21:3018100103.82 
01/08/2020 20:3017600104.07 
01/08/2020 19:3016700104.31 
01/08/2020 18:3016100104.53 
01/08/2020 18:00  48.9
01/08/2020 17:3014800104.72 
01/08/2020 17:00  49.1
01/08/2020 16:3012100104.9 
01/08/2020 15:309040104.92 
01/08/2020 14:308040104.66 
01/08/2020 14:00  49.1
01/08/2020 13:308880104.23 
01/08/2020 13:00  48.9
01/08/2020 12:3011300103.72 
01/08/2020 11:3014300103.32 
01/08/2020 10:3015100103.2 
01/08/2020 10:00  48.9
01/08/2020 09:3015700103.26 
01/08/2020 09:00  49.1
01/08/2020 08:3015300103.38 
01/08/2020 08:00  49.1
01/08/2020 07:3014900103.5 
01/08/2020 07:00  49.3
01/08/2020 06:3013700103.59 
01/08/2020 05:3012700103.62 
01/08/2020 04:3012400103.51 
01/08/2020 03:3013100103.28 
01/08/2020 02:3014700103.02 
01/08/2020 01:3016400102.85 
01/08/2020 00:3017700102.86 
01/07/2020 23:3017900103 
01/07/2020 22:3017900103.22 
01/07/2020 22:00  49.3
01/07/2020 21:3017700103.46 
01/07/2020 21:00  49.5
01/07/2020 20:3017400103.7 
01/07/2020 19:3017000103.93 
01/07/2020 18:3016200104.15 
01/07/2020 18:00  49.5
01/07/2020 17:3015100104.34 
01/07/2020 17:00  49.6
01/07/2020 16:3013800104.52 
01/07/2020 15:3010600104.67 
01/07/2020 13:308270104.22 
01/07/2020 13:00  49.6
01/07/2020 12:309560103.74 
01/07/2020 12:00  49.5
01/07/2020 11:3012000103.24 
01/07/2020 10:3014700102.96 
01/07/2020 09:3015800102.89 
01/07/2020 09:00  49.5
01/07/2020 08:3015700102.98 
01/07/2020 08:00  49.6
01/07/2020 07:3015000103.09 
01/07/2020 06:3014200103.19 
01/07/2020 05:3013700103.27 
01/07/2020 04:3012800103.26 
01/07/2020 04:00  49.6
01/07/2020 03:3012900103.14 
01/07/2020 03:00  49.8
01/07/2020 02:3013600102.92 
01/07/2020 01:3015000102.72 
01/07/2020 00:3016300102.62 
01/06/2020 23:3017600102.67 
01/06/2020 23:00  49.8
01/06/2020 22:3017800102.84 
01/06/2020 22:00  50
01/06/2020 21:3017300103.06 
01/06/2020 20:3017100103.29 
01/06/2020 19:3017000103.53 
01/06/2020 18:3016600103.74 
01/06/2020 17:3015900103.95 
01/06/2020 16:3014800104.12 
01/06/2020 15:3013200104.28 
01/06/2020 14:3010300104.35 
01/06/2020 13:308970104.16 
01/06/2020 12:309630103.78 
01/06/2020 11:3011000103.32 
01/06/2020 11:00  50
01/06/2020 10:3013800102.89 
01/06/2020 10:00  49.8
01/06/2020 09:3015300102.71 
01/06/2020 08:3015900102.72 
01/06/2020 07:3016000102.83 
01/06/2020 07:00  49.8
01/06/2020 06:3015700102.95 
01/06/2020 06:00  50
01/06/2020 05:3014900103.06 
01/06/2020 04:3014200103.14 
01/06/2020 03:3013700103.15 
01/06/2020 03:00  50
01/06/2020 02:3013600103.07 
01/06/2020 02:00  50.2
01/06/2020 01:3014100102.92 
01/06/2020 01:00  50
01/06/2020 00:3015500102.77 
01/06/2020 00:00  50.2
01/05/2020 23:3016400102.74 
01/05/2020 23:00  50
01/05/2020 22:3017600102.81 
01/05/2020 22:00  50
01/05/2020 21:3017400102.99 
01/05/2020 21:00  50.2
01/05/2020 20:3017600103.2 
01/05/2020 19:3017300103.42 
01/05/2020 18:3016800103.64 
01/05/2020 17:3016200103.86 
01/05/2020 16:3015300104.04 
01/05/2020 15:3013800104.19 
01/05/2020 14:3012300104.32 
01/05/2020 13:309830104.29 
01/05/2020 13:00  50.2
01/05/2020 12:308940104.02 
01/05/2020 12:00  50
01/05/2020 11:309950103.61 
01/05/2020 11:00  50
01/05/2020 10:3011900103.15 
01/05/2020 10:00  49.8
01/05/2020 09:3014000102.79 
01/05/2020 08:3015400102.68 
01/05/2020 07:3016400102.74 
01/05/2020 07:00  49.8
01/05/2020 06:3016000102.85 
01/05/2020 06:00  50
01/05/2020 05:3016000102.99 
01/05/2020 04:3015400103.1 
01/05/2020 03:3014600103.18 
01/05/2020 02:3014300103.21 
01/05/2020 01:3014500103.16 
01/05/2020 00:3014700103.06 
01/04/2020 23:3015700102.96 
01/04/2020 22:3016600102.95 
01/04/2020 21:3017500103.03 
01/04/2020 20:30 103.21 
01/04/2020 19:3017500103.42 
01/04/2020 18:3017100103.63 
01/04/2020 17:3016500103.84 
01/04/2020 16:3016200104.03 
01/04/2020 15:3015100104.2 
01/04/2020 14:3014000104.34 
01/04/2020 13:3011900104.43 
01/04/2020 13:00  50
01/04/2020 12:309810104.34 
01/04/2020 12:00  49.8
01/04/2020 11:309360104.04 
01/04/2020 10:3010900103.59 
01/04/2020 09:3013200103.15 
01/04/2020 09:00  49.8
01/04/2020 08:3015300102.83 
01/04/2020 08:00  49.6
01/04/2020 07:3016400102.75 
01/04/2020 07:00  49.8
01/04/2020 06:3016800102.82 
01/04/2020 05:3016700102.94 
01/04/2020 04:3016600103.09 
01/04/2020 03:3015600103.2 
01/04/2020 03:00  49.8
01/04/2020 02:3015600103.31 
01/04/2020 02:00  49.6
01/04/2020 01:3015100103.34 
01/04/2020 00:3014600103.33 
01/04/2020 00:00  49.6
01/03/2020 23:3014900103.24 
01/03/2020 23:00  49.8
01/03/2020 22:3016000103.13 
01/03/2020 21:3016800103.08 
01/03/2020 20:3017100103.12 
01/03/2020 20:00  49.8
01/03/2020 19:3017400103.25 
01/03/2020 19:00  50
01/03/2020 18:3017500103.42 
01/03/2020 18:00  50
01/03/2020 17:3017100103.6 
01/03/2020 17:00  49.8
01/03/2020 16:3016900103.78 
01/03/2020 15:3015900103.92 
01/03/2020 14:3015100104.05 
01/03/2020 14:00  49.8
01/03/2020 13:3013900104.13 
01/03/2020 13:00  49.6
01/03/2020 12:3011700104.12 
01/03/2020 11:3011200103.93 
01/03/2020 11:00  49.6
01/03/2020 10:3011400103.59 
01/03/2020 10:00  49.5
01/03/2020 09:00  49.5
01/03/2020 08:3015300102.86 
01/03/2020 08:00  49.3
01/03/2020 07:3016600102.72 
01/03/2020 07:00  49.5
01/03/2020 06:3017600102.76 
01/03/2020 05:3017700102.89 
01/03/2020 04:3017500103.06 
01/03/2020 03:3017000103.23 
01/03/2020 02:3017000103.39 
01/03/2020 01:3016400103.53 
01/03/2020 00:3015700103.62 
01/03/2020 00:00  49.5
01/02/2020 23:3015500103.66 
01/02/2020 23:00  49.3
01/02/2020 22:3015100103.62 
01/02/2020 22:00  49.5
01/02/2020 21:3015700103.53 
01/02/2020 20:3016700103.46 
01/02/2020 19:3017400103.47 
01/02/2020 18:3017900103.56 
01/02/2020 17:3017500103.7 
01/02/2020 16:3017100103.85 
01/02/2020 15:3016800104 
01/02/2020 15:00  49.5
01/02/2020 14:3016000104.14 
01/02/2020 14:00  49.3
01/02/2020 13:3014900104.24 
01/02/2020 12:3013300104.29 
01/02/2020 12:00  49.3
01/02/2020 11:3012100104.2 
01/02/2020 11:00  49.1
01/02/2020 10:3012000103.93 
01/02/2020 10:00  49.1
01/02/2020 09:3013200103.58 
01/02/2020 09:00  48.9
01/02/2020 08:3015200103.24 
01/02/2020 08:00  48.9
01/02/2020 07:3016700103.02 
01/02/2020 07:00  49.1
01/02/2020 06:3018000103 
01/02/2020 05:3018300103.11 
01/02/2020 04:3018400103.29 
01/02/2020 03:3018200103.49 
01/02/2020 02:3017700103.68 
01/02/2020 02:00  49.1
01/02/2020 01:3017400103.86 
01/02/2020 01:00  48.9
01/02/2020 00:3016300104.02 
01/01/2020 23:3015800104.14 
01/01/2020 22:3015100104.19 
01/01/2020 21:3014500104.15 
01/01/2020 20:3014900104.02 
01/01/2020 19:3016000103.87 
01/01/2020 18:3017000103.79 
01/01/2020 17:3017800103.8 
01/01/2020 16:3017800103.9 
01/01/2020 15:3017200104.03 
01/01/2020 15:00  48.9
01/01/2020 14:3016900104.14 
01/01/2020 14:00  48.7
01/01/2020 13:3016400104.25 
01/01/2020 13:00  48.7
01/01/2020 12:3015300104.31 
01/01/2020 12:00  48.6
01/01/2020 11:3013300104.32 
01/01/2020 10:3013100104.17 
01/01/2020 10:00  48.6
01/01/2020 09:3014100103.88 
01/01/2020 09:00  48.4
01/01/2020 08:3015200103.56 
01/01/2020 07:3016700103.31 
01/01/2020 07:00  48.4
01/01/2020 06:3017900103.21 
01/01/2020 06:00  48.6
01/01/2020 05:3019000103.27 
01/01/2020 04:3019300103.43 
01/01/2020 03:3019400103.63 
01/01/2020 02:3019100103.84 
01/01/2020 02:00  48.6
01/01/2020 01:3018700104.05 
01/01/2020 01:00  48.4
01/01/2020 00:3018100104.24 
12/31/2019 23:3017300104.41 
12/31/2019 22:3016600104.53 
12/31/2019 21:3015200104.59 
12/31/2019 20:3014700104.54 
12/31/2019 19:3014900104.37 
12/31/2019 18:3016000104.16 
12/31/2019 17:3017000104.03 
12/31/2019 16:3018100104.01 
12/31/2019 16:00  48.4
12/31/2019 15:3018700104.08 
12/31/2019 15:00  48.2
12/31/2019 14:3018200104.2 
12/31/2019 13:3017600104.31 
12/31/2019 13:00  48.2
12/31/2019 12:3016400104.41 
12/31/2019 12:00  48
12/31/2019 11:3015700104.47 
12/31/2019 11:00  48
12/31/2019 10:3014600104.42 
12/31/2019 10:00  47.8
12/31/2019 09:3014100104.25 
12/31/2019 08:3015500103.96 
12/31/2019 07:3016700103.71 
12/31/2019 07:00  47.8
12/31/2019 06:3018500103.53 
12/31/2019 06:00  48
12/31/2019 05:3019400103.51 
12/31/2019 04:3019800103.63 
12/31/2019 04:00  48
12/31/2019 03:3020000103.83 
12/31/2019 03:00  48.2
12/31/2019 02:3020000104.04 
12/31/2019 02:00  48.2
12/31/2019 01:3019800104.26 
12/31/2019 01:00  48
12/31/2019 00:3019100104.46 
12/30/2019 23:3018900104.67 
12/30/2019 22:3017400104.84 
12/30/2019 21:3016500104.96 
12/30/2019 21:00  48
12/30/2019 20:3015300105.01 
12/30/2019 20:00  48.2
12/30/2019 19:3014300104.91 
12/30/2019 18:3014600104.65 
12/30/2019 17:3016100104.36 
12/30/2019 16:3017600104.16 
12/30/2019 15:3018300104.12 
12/30/2019 15:00  48.2
12/30/2019 14:3018600104.19 
12/30/2019 14:00  48
12/30/2019 13:3018300104.3 
12/30/2019 12:3017500104.4 
12/30/2019 12:00  48
12/30/2019 11:3016800104.48 
12/30/2019 11:00  47.8
12/30/2019 10:3015500104.51 
12/30/2019 10:00  47.8
12/30/2019 09:3015000104.42 
12/30/2019 09:00  47.7

Start Stop